Headquarters, Valles Caldera, New Mexico Weather observations

Data are for 10 minute period ending at time listed.
 Day   Time   Solar   Ave.   Ave.  Ave.  Vector  Max.   Baro.   Total    
  of    of     Rad.   Air    Rel.  Wind   Wind   Wind  Press.  Precip.   
Year   Day            Temp.  Hum.  Speed  Dir.   Gust                    
2014   (MST)  Kw/m2    F      %     mph   deg.    mph    mb.     in.     
-------------------------------------------------------------------------
 233    4:20   0.00   40.0    87    2.5   219     3.6   743.5    0.00 
 233    4:30   0.00   40.4    86    2.3   258     4.2   743.5    0.00 
 233    4:40   0.00   41.1    85    2.2   248     4.2   743.5    0.00 
 233    4:50   0.00   41.4    83    2.2   265     4.2   743.5    0.00 
 233    5:00   0.00   41.3    83    1.1   264     3.0   743.5    0.00 
 233    5:10   0.00   41.4    83    1.1   319     2.4   743.5    0.00 
 233    5:20   0.00   41.6    82    1.2   325     3.0   743.6    0.00 
 233    5:30   0.00   41.2    82    1.3    26     3.6   743.8    0.00 
 233    5:40   0.01   40.7    83    1.2   240     3.0   743.9    0.00 
 233    5:50   0.02   41.1    83    1.3   222     3.0   743.9    0.00 
 233    6:00   0.04   43.7    78    1.2   219     3.0   744.0    0.00 
 233    6:10   0.07   46.8    71    2.6   208     4.2   744.1    0.00 
 233    6:20   0.10   48.6    70    2.3   193     3.6   744.1    0.00 
 233    6:30   0.12   50.2    69    2.1   134     5.4   744.2    0.00 
 233    6:40   0.15   48.8    74    1.9    88     3.6   744.3    0.00 
 233    6:50   0.18   50.8    69    1.3    95     3.6   744.5    0.00 
 233    7:00   0.21   52.0    63    1.6    67     3.6   744.6    0.00 
 233    7:10   0.24   52.4    66    2.3    76     4.2   744.7    0.00 
 233    7:20   0.27   52.6    67    2.9    64     4.8   744.7    0.00 
 233    7:30   0.30   53.4    68    3.6    74     5.4   744.9    0.00 
 233    7:40   0.33   55.3    64    2.5    40     6.0   744.9    0.00 
 233    7:50   0.36   57.6    61    4.6    62     7.2   744.9    0.00 
 233    8:00   0.39   58.6    59    5.0    95     8.4   744.9    0.00 
 233    8:10   0.42   60.5    53    3.5   147     7.2   745.0    0.00 
 233    8:20   0.45   63.2    47    3.7   104     7.2   745.0    0.00 
 233    8:30   0.48   64.2    43    6.2    58    16.1   744.9    0.00 
 233    8:40   0.50   64.8    38    7.5    28    12.5   744.9    0.00 
 233    8:50   0.53   65.2    38    7.6    32    11.9   745.0    0.00 
 233    9:00   0.55   65.5    38    8.2    30    13.1   745.0    0.00 
 233    9:10   0.59   65.6    35    8.2    12    13.7   745.0    0.00 
 233    9:20   0.67   66.2    37    8.1    36    13.1   745.0    0.00 
 233    9:30   0.72   67.4    35    5.6    13     9.6   745.1    0.00 
 233    9:40   0.59   69.3    34    5.9   193     9.0   745.2    0.00 
 233    9:50   0.48   66.6    38    6.2   192     9.0   745.3    0.00 
 233   10:00   0.78   69.1    35    5.4   184     9.0   745.3    0.00 
 233   10:10   0.56   69.6    31    3.2   133     7.2   745.2    0.00 
 233   10:20   0.59   67.5    33    3.9   119     6.6   745.2    0.00 
 233   10:30   0.23   67.3    32    3.1    91     6.6   745.3    0.00 
 233   10:40   0.17   65.9    34    2.0    77     6.6   745.3    0.00 
 233   10:50   0.18   66.1    36    4.0   244     9.6   745.3    0.00 
 233   11:00   0.63   66.4    37    5.2   211     9.0   745.2    0.00 
 233   11:10   0.88   69.4    34    4.5   144     9.6   745.1    0.00 
 233   11:20   0.95   70.3    32    5.1   128     9.0   745.1    0.00 
 233   11:30   0.56   69.6    34    5.4   109    10.8   745.0    0.00 
 233   11:40   0.19   66.8    38    5.2    84     7.8   745.0    0.00 
 233   11:50   0.20   65.6    37    3.6   100     6.0   745.0    0.00 
 233   12:00   0.42   67.2    38    3.6    69     6.6   745.0    0.00 
 233   12:10   0.23   66.9    38    3.9    66     6.6   744.9    0.00 
 233   12:20   0.30   66.5    42    4.7   104     7.2   745.0    0.00 
 233   12:30   0.25   66.4    44    4.1   100     6.6   744.9    0.00 
 233   12:40   0.28   66.4    43    4.3   115     6.6   744.9    0.00 
 233   12:50   0.25   66.7    42    4.2    92     8.4   744.9    0.00 
 233   13:00   0.26   66.8    38    4.7   181     8.4   744.9    0.00 
 233   13:10   0.50   67.9    37    5.1   206     8.4   744.9    0.00 
 233   13:20   0.35   69.4    34    4.5   213     9.0   744.9    0.00 
 233   13:30   0.62   69.2    37    5.5   191     9.0   744.8    0.00 
 233   13:40   0.82   71.3    33    5.9   208     9.6   744.8    0.00 
 233   13:50   0.35   69.6    34    5.4   188     9.6   744.8    0.00 
 233   14:00   0.47   69.3    37    5.1   200     9.6   744.8    0.00 
 233   14:10   0.71   70.8    33    4.2   229    10.2   744.7    0.00 
 233   14:20   0.74   72.8    31    5.2   232     9.6   744.6    0.00 
 233   14:30   0.55   71.8    31    4.5   205     9.0   744.5    0.00 
 233   14:40   0.35   70.5    32    3.7   217     7.8   744.5    0.00 
 233   14:50   0.25   70.5    34    3.4   195     6.0   744.4    0.00 
 233   15:00   0.21   68.3    36    7.0   190    13.1   744.4    0.00 
 233   15:10   0.21   67.1    39    6.7   191    10.2   744.4    0.00 
 233   15:20   0.26   67.5    39    5.5   188     7.8   744.3    0.00 
 233   15:30   0.28   68.2    36    5.6   219     7.8   744.4    0.00 
 233   15:40   0.25   68.6    37    4.6   198     7.2   744.3    0.00 
 233   15:50   0.23   68.5    37    4.6   200     7.2   744.3    0.00 
 233   16:00   0.22   68.2    37    4.5   183     7.8   744.3    0.00 
 233   16:10   0.19   67.8    37    3.8   199     6.0   744.2    0.00 
 233   16:20   0.15   67.6    38    4.8   202     7.2   744.2    0.00 
 233   16:30   0.18   67.2    42    3.8   203     5.4   744.1    0.00 
 233   16:40   0.47   69.5    33    2.2   174     5.4   744.0    0.00 
 233   16:50   0.45   72.8    29    2.4   206     4.8   744.0    0.00 
 233   17:00   0.16   71.7    30    2.6   199     6.0   744.0    0.00 
 233   17:10   0.12   68.9    33    3.4   224     7.2   744.0    0.00 
 233   17:20   0.26   69.0    36    2.7   245     4.2   744.0    0.00 
 233   17:30   0.24   70.8    30    2.4   272     4.8   744.0    0.00 
 233   17:40   0.08   69.8    28    2.0   312     3.0   743.9    0.00 
 233   17:50   0.05   66.8    38    3.1   271     4.2   743.9    0.00 
 233   18:00   0.04   64.2    44    3.2   261     4.2   744.0    0.00 
 233   18:10   0.03   62.2    48    3.3   260     4.2   744.0    0.00 
 233   18:20   0.02   61.1    49    3.2   263     4.2   744.0    0.00 
 233   18:30   0.01   59.8    56    3.1   254     4.2   744.1    0.00 
 233   18:40   0.01   58.2    61    3.7   268     4.2   744.0    0.00 
 233   18:50   0.00   58.1    57    3.2   276     3.6   744.1    0.00 
 233   19:00   0.00   57.9    60    3.2   264     4.2   744.3    0.00 
 233   19:10   0.00   56.8    61    3.3   267     4.2   744.3    0.00 
 233   19:20   0.00   56.8    62    3.6   254     4.8   744.3    0.00 
 233   19:30   0.00   56.3    63    2.9   291     4.8   744.3    0.00 
 233   19:40   0.00   55.4    64    2.4   233     3.6   744.4    0.00 
 233   19:50   0.00   55.6    63    3.6   272     4.2   744.5    0.00 
 233   20:00   0.00   56.0    60    3.3   268     4.2   744.7    0.00 
 233   20:10   0.00   55.9    63    2.8   264     4.2   744.7    0.00 
 233   20:20   0.00   55.0    62    2.9   258     4.2   744.8    0.00 
 233   20:30   0.00   55.5    60    2.5   277     4.8   744.9    0.00 
 233   20:40   0.00   55.2    65    1.8   331     3.0   745.0    0.00 
 233   20:50   0.00   55.7    61    1.6   275     2.4   744.9    0.00 
 233   21:00   0.00   55.9    62    1.5    58     2.4   744.9    0.00 
 233   21:10   0.00   54.2    68    0.4    62     1.8   745.0    0.00 
 233   21:20   0.00   54.2    66    0.9   352     2.4   744.9    0.00 
 233   21:30   0.00   55.0    62    2.4   305     3.0   744.8    0.00 
 233   21:40   0.00   54.9    61    2.1   284     3.0   744.7    0.00 
 233   21:50   0.00   54.7    60    2.1   301     3.6   744.7    0.00 
 233   22:00   0.00   54.0    60    3.2   282     4.2   744.7    0.00 
 233   22:10   0.00   53.2    63    2.1   265     4.2   744.6    0.00 
 233   22:20   0.00   52.3    62    3.3   252     4.8   744.5    0.00 
 233   22:30   0.00   52.4    61    3.4   291     4.8   744.5    0.00 
 233   22:40   0.00   52.6    58    2.5   292     3.6   744.4    0.00 
 233   22:50   0.00   52.5    58    2.5   242     4.2   744.4    0.00 
 233   23:00   0.00   51.7    64    3.6   250     4.8   744.5    0.00 
 233   23:10   0.00   51.5    64    3.6   270     4.2   744.4    0.00 
 233   23:20   0.00   51.8    64    3.6   277     4.8   744.4    0.00 
 233   23:30   0.00   51.7    64    1.6   332     3.6   744.3    0.00 
 233   23:40   0.00   51.3    66    1.0   330     3.0   744.3    0.00 
 233   23:50   0.00   51.8    59    2.3   289     3.0   744.2    0.00 
 234    0:00   0.00   51.7    61    1.9   295     2.4   744.2    0.00 
 234    0:10   0.00   51.3    60    2.1   307     3.6   744.0    0.00 
 234    0:20   0.00   51.1    60    2.8   281     3.6   744.0    0.00 
 234    0:30   0.00   50.6    61    2.5   253     3.0   744.0    0.00 
 234    0:40   0.00   50.0    63    3.6   300     5.4   743.8    0.00 
 234    0:50   0.00   49.7    63    2.8   276     4.2   743.7    0.00 
 234    1:00   0.00   49.6    64    1.3   319     3.6   743.7    0.00 
 234    1:10   0.00   49.2    65    1.3   275     3.0   743.8    0.00 
 234    1:20   0.00   48.3    70    1.4   290     2.4   743.8    0.00 
 234    1:30   0.00   48.5    67    2.5   267     3.6   743.7    0.00 
 234    1:40   0.00   48.7    66    2.3   277     3.0   743.8    0.00 
 234    1:50   0.00   48.5    68    3.2   276     4.2   743.8    0.00 
 234    2:00   0.00   48.0    69    2.5   279     3.6   743.7    0.00 
 234    2:10   0.00   47.7    70    2.5   274     3.6   743.7    0.00 
 234    2:20   0.00   48.0    68    3.2   253     4.2   743.7    0.00 
 234    2:30   0.00   46.9    74    1.9   360     3.6   743.7    0.00 
 234    2:40   0.00   47.1    73    1.6   300     3.0   743.7    0.00 
 234    2:50   0.00   47.3    70    1.8   244     3.0   743.6    0.00 
 234    3:00   0.00   46.4    74    1.2   359     3.0   743.6    0.00 
 234    3:10   0.00   45.8    76    2.8   257     4.2   743.6    0.00 
 234    3:20   0.00   44.3    78    4.0   232     4.8   743.6    0.00 
 234    3:30   0.00   45.1    78    3.7   276     4.2   743.6    0.00 
 234    3:40   0.00   46.2    77    2.4   247     3.6   743.6    0.00 
 234    3:50   0.00   45.5    80    0.9   239     3.0   743.6    0.00 
 234    4:00   0.00   45.5    81    1.1   305     1.8   743.6    0.00 
 234    4:10   0.00   46.1    79    0.9   146     1.8   743.6    0.00 

Return to Headquarters, Valles Caldera graphs page.


Western Regional Climate Center,wrcc@dri.edu